createdAt,value
2023-05-20T00:01:29.810Z,1.80
2023-05-20T00:04:15.344Z,2.30
2023-05-20T00:07:00.377Z,1.95
2023-05-20T00:09:45.723Z,1.75
2023-05-20T00:12:30.517Z,1.80
2023-05-20T00:15:15.975Z,2.88
2023-05-20T00:18:02.149Z,1.90
2023-05-20T00:20:47.153Z,1.70
2023-05-20T00:23:32.146Z,2.20
2023-05-20T00:26:17.176Z,2.10
2023-05-20T00:29:02.679Z,2.10
2023-05-20T00:31:47.946Z,1.60
2023-05-20T00:34:33.049Z,1.90
2023-05-20T00:37:18.525Z,1.83
2023-05-20T00:40:03.891Z,1.85
2023-05-20T00:42:49.322Z,1.77
2023-05-20T00:45:34.495Z,1.65
2023-05-20T00:48:21.497Z,2.03
2023-05-20T00:51:07.580Z,1.67
2023-05-20T00:53:53.148Z,2.53
2023-05-20T00:56:38.475Z,1.83
2023-05-20T00:59:24.224Z,1.65
2023-05-20T01:02:09.384Z,2.00
2023-05-20T01:04:56.881Z,2.00
2023-05-20T01:07:42.434Z,1.90
2023-05-20T01:10:30.448Z,1.90
2023-05-20T01:13:19.912Z,1.85
2023-05-20T01:16:05.632Z,1.80
2023-05-20T01:18:55.138Z,1.83
2023-05-20T01:21:42.450Z,2.00
2023-05-20T01:27:13.427Z,1.60
2023-05-20T01:29:58.868Z,1.70
2023-05-20T01:32:58.534Z,1.50
2023-05-20T01:35:43.846Z,1.90
2023-05-20T01:38:29.648Z,2.00
2023-05-20T01:41:15.048Z,1.73
2023-05-20T01:44:01.876Z,1.90
2023-05-20T01:46:51.346Z,1.80
2023-05-20T01:49:36.606Z,1.80
2023-05-20T01:52:22.467Z,1.83
2023-05-20T01:55:07.710Z,1.83
2023-05-20T01:57:52.715Z,1.95
2023-05-20T02:00:37.933Z,2.13
2023-05-20T02:03:23.421Z,1.80
2023-05-20T02:06:08.251Z,1.83
2023-05-20T02:08:53.486Z,1.80
2023-05-20T02:11:38.288Z,1.80
2023-05-20T02:14:23.070Z,2.00
2023-05-20T02:17:07.975Z,1.52
2023-05-20T02:19:52.771Z,1.55
2023-05-20T02:22:37.910Z,2.13
2023-05-20T02:25:24.185Z,2.13
2023-05-20T02:28:11.016Z,1.75
2023-05-20T02:30:55.821Z,2.03
2023-05-20T02:33:41.011Z,1.98
2023-05-20T02:36:25.823Z,1.60
2023-05-20T02:39:11.104Z,1.85
2023-05-20T02:41:56.318Z,2.00
2023-05-20T02:44:41.791Z,1.67
2023-05-20T02:47:27.199Z,1.75
2023-05-20T02:50:12.218Z,1.98
2023-05-20T02:52:57.409Z,2.03
2023-05-20T02:55:42.575Z,1.67
2023-05-20T02:58:28.701Z,1.80
2023-05-20T03:01:13.945Z,1.70
2023-05-20T03:03:59.365Z,1.95
2023-05-20T03:06:46.413Z,1.85
2023-05-20T03:12:17.381Z,1.83
2023-05-20T03:15:02.277Z,2.00
2023-05-20T03:17:47.275Z,2.10
2023-05-20T03:20:38.596Z,2.10
2023-05-20T03:23:23.465Z,1.63
2023-05-20T03:26:08.301Z,1.70
2023-05-20T03:28:53.208Z,2.00
2023-05-20T03:31:38.264Z,1.80
2023-05-20T03:34:23.370Z,2.67
2023-05-20T03:37:08.208Z,2.10
2023-05-20T03:39:53.101Z,1.90
2023-05-20T03:42:38.852Z,2.20
2023-05-20T03:45:23.683Z,1.92
2023-05-20T03:48:08.505Z,1.95
2023-05-20T03:50:53.996Z,1.92
2023-05-20T03:53:39.212Z,1.65
2023-05-20T03:56:24.519Z,1.90
2023-05-20T03:59:10.307Z,2.00
2023-05-20T04:01:56.947Z,2.33
2023-05-20T04:04:45.536Z,1.90
2023-05-20T04:07:30.694Z,1.90
2023-05-20T04:10:15.549Z,1.98
2023-05-20T04:13:00.571Z,1.90
2023-05-20T04:15:46.627Z,2.05
2023-05-20T04:18:31.800Z,2.55
2023-05-20T04:21:17.050Z,1.92
2023-05-20T04:24:02.013Z,2.20
2023-05-20T04:26:48.121Z,1.92
2023-05-20T04:29:34.205Z,2.15
2023-05-20T04:32:19.544Z,1.92
2023-05-20T04:35:09.876Z,2.25
2023-05-20T04:37:55.505Z,2.30
2023-05-20T04:40:41.657Z,2.38
2023-05-20T04:43:30.062Z,2.63
2023-05-20T04:46:16.851Z,1.90
2023-05-20T04:49:02.067Z,2.20
2023-05-20T04:51:50.543Z,2.20
2023-05-20T04:54:35.564Z,2.50
2023-05-20T04:57:21.392Z,2.17
2023-05-20T05:00:10.346Z,2.17
2023-05-20T05:02:55.837Z,2.30
2023-05-20T05:05:42.413Z,2.40
2023-05-20T05:08:27.545Z,3.33
2023-05-20T05:11:12.317Z,2.50
2023-05-20T05:13:57.153Z,2.72
2023-05-20T05:16:42.255Z,2.40
2023-05-20T05:19:27.183Z,2.53
2023-05-20T05:22:12.916Z,2.58
2023-05-20T05:24:58.814Z,2.92
2023-05-20T05:27:44.712Z,2.80
2023-05-20T05:30:30.270Z,2.40
2023-05-20T05:33:15.958Z,2.85
2023-05-20T05:36:03.006Z,3.05
2023-05-20T05:38:47.971Z,2.63
2023-05-20T05:41:33.805Z,2.85
2023-05-20T05:44:18.731Z,3.17
2023-05-20T05:47:03.819Z,2.83
2023-05-20T05:49:48.848Z,3.08
2023-05-20T05:52:33.645Z,2.92
2023-05-20T05:55:18.566Z,3.78
2023-05-20T05:58:03.450Z,3.05
2023-05-20T06:00:52.763Z,3.45
2023-05-20T06:03:38.706Z,3.05
2023-05-20T06:06:24.000Z,3.45
2023-05-20T06:09:08.844Z,3.60
2023-05-20T06:11:53.968Z,3.85
2023-05-20T06:14:39.012Z,3.97
2023-05-20T06:17:24.430Z,3.60
2023-05-20T06:20:09.541Z,4.57
2023-05-20T06:22:54.789Z,4.28
2023-05-20T06:25:39.779Z,4.03
2023-05-20T06:28:25.662Z,4.20
2023-05-20T06:31:10.600Z,4.25
2023-05-20T06:33:56.020Z,4.43
2023-05-20T06:36:41.710Z,4.20
2023-05-20T06:39:26.808Z,4.30
2023-05-20T06:42:12.258Z,4.28
2023-05-20T06:44:57.204Z,4.00
2023-05-20T06:47:42.840Z,3.85
2023-05-20T06:50:28.399Z,3.75
2023-05-20T06:53:13.925Z,4.05
2023-05-20T06:55:58.960Z,3.70
2023-05-20T06:58:44.680Z,4.20
2023-05-20T07:01:29.558Z,3.47
2023-05-20T07:04:14.662Z,4.22
2023-05-20T07:06:59.911Z,3.70
2023-05-20T07:09:45.662Z,4.03
2023-05-20T07:12:30.761Z,4.10
2023-05-20T07:15:15.860Z,3.42
2023-05-20T07:18:01.008Z,3.42
2023-05-20T07:20:46.972Z,3.60
2023-05-20T07:23:34.215Z,3.90
2023-05-20T07:26:19.672Z,3.42
2023-05-20T07:29:05.314Z,3.20
2023-05-20T07:31:50.074Z,3.83
2023-05-20T07:34:35.757Z,3.83
2023-05-20T07:37:20.762Z,3.50
2023-05-20T07:40:07.946Z,3.13
2023-05-20T07:42:52.662Z,3.22
2023-05-20T07:45:37.671Z,3.30
2023-05-20T07:48:23.040Z,3.55
2023-05-20T07:51:07.850Z,3.10
2023-05-20T07:53:52.592Z,3.05
2023-05-20T07:56:37.721Z,3.17
2023-05-20T07:59:22.472Z,3.00
2023-05-20T08:02:08.496Z,2.80
2023-05-20T08:04:53.738Z,3.20
2023-05-20T08:07:38.537Z,3.40
2023-05-20T08:10:23.848Z,2.80
2023-05-20T08:13:08.745Z,3.33
2023-05-20T08:15:54.757Z,2.95
2023-05-20T08:18:40.087Z,3.10
2023-05-20T08:21:25.624Z,2.90
2023-05-20T08:24:10.400Z,3.00
2023-05-20T08:26:55.205Z,3.13
2023-05-20T08:29:40.102Z,3.17
2023-05-20T08:32:25.016Z,3.17
2023-05-20T08:35:10.157Z,3.13
2023-05-20T08:37:54.977Z,3.00
2023-05-20T08:40:42.475Z,3.10
2023-05-20T08:43:27.421Z,2.78
2023-05-20T08:46:12.790Z,3.03
2023-05-20T08:48:59.244Z,3.10
2023-05-20T08:51:46.500Z,3.40
2023-05-20T08:54:46.036Z,3.00
2023-05-20T08:57:31.249Z,2.92
2023-05-20T09:00:17.269Z,2.80
2023-05-20T09:03:03.108Z,3.00
2023-05-20T09:05:48.474Z,3.00
2023-05-20T09:08:34.074Z,2.95
2023-05-20T09:11:22.960Z,2.78
2023-05-20T09:14:08.808Z,3.50
2023-05-20T09:16:54.142Z,3.45
2023-05-20T09:19:39.108Z,3.25
2023-05-20T09:22:25.423Z,3.15
2023-05-20T09:25:12.307Z,3.95
2023-05-20T09:27:57.346Z,4.18
2023-05-20T09:30:44.491Z,3.42
2023-05-20T09:33:32.398Z,3.28
2023-05-20T09:36:17.723Z,3.38
2023-05-20T09:39:05.498Z,3.17
2023-05-20T09:42:09.427Z,3.65
2023-05-20T09:44:55.287Z,3.42
2023-05-20T09:47:41.677Z,3.35
2023-05-20T09:50:28.700Z,3.70
2023-05-20T09:53:14.523Z,3.40
2023-05-20T09:55:59.653Z,3.40
2023-05-20T09:58:45.691Z,3.58
2023-05-20T10:01:31.110Z,3.35
2023-05-20T10:04:18.858Z,3.40
2023-05-20T10:07:42.261Z,2.88
2023-05-20T10:10:45.856Z,3.50
2023-05-20T10:14:06.145Z,3.67
2023-05-20T10:17:07.779Z,3.08
2023-05-20T10:19:59.545Z,3.35
2023-05-20T10:22:57.129Z,3.70
2023-05-20T10:25:52.621Z,3.60
2023-05-20T10:28:41.112Z,3.35
2023-05-20T10:31:26.312Z,3.80
2023-05-20T10:34:17.476Z,3.92
2023-05-20T10:37:02.481Z,3.97
2023-05-20T10:39:49.272Z,4.05
2023-05-20T10:42:34.373Z,3.50
2023-05-20T10:45:29.666Z,3.80
2023-05-20T10:48:42.033Z,4.00
2023-05-20T10:51:29.565Z,3.85
2023-05-20T10:57:00.656Z,3.20
2023-05-20T10:59:47.814Z,3.92
2023-05-20T11:02:34.126Z,3.40
2023-05-20T11:05:21.000Z,3.95
2023-05-20T11:08:20.649Z,3.35
2023-05-20T11:11:15.315Z,3.58
2023-05-20T11:14:00.742Z,3.78
2023-05-20T11:16:46.671Z,3.50
2023-05-20T11:19:31.844Z,4.25
2023-05-20T11:22:17.536Z,3.55
2023-05-20T11:25:07.205Z,3.50
2023-05-20T11:27:52.008Z,3.53
2023-05-20T11:30:39.655Z,4.03
2023-05-20T11:33:27.274Z,3.70
2023-05-20T11:36:26.863Z,4.07
2023-05-20T11:39:14.779Z,4.13
2023-05-20T11:41:59.801Z,4.60
2023-05-20T11:44:48.434Z,3.70
2023-05-20T11:47:33.967Z,3.90
2023-05-20T11:50:19.103Z,4.40
2023-05-20T11:53:06.309Z,3.42
2023-05-20T11:55:55.307Z,3.80
2023-05-20T11:58:40.147Z,3.65
2023-05-20T12:01:25.496Z,3.83
2023-05-20T12:04:11.229Z,3.85
2023-05-20T12:06:56.477Z,3.00
2023-05-20T12:09:41.406Z,3.92
2023-05-20T12:12:26.902Z,4.07
2023-05-20T12:15:12.328Z,3.28
2023-05-20T12:17:57.529Z,3.53
2023-05-20T12:20:42.745Z,3.72
2023-05-20T12:23:30.980Z,3.70
2023-05-20T12:26:16.223Z,3.80
2023-05-20T12:29:01.644Z,3.90
2023-05-20T12:31:47.880Z,3.53
2023-05-20T12:34:36.157Z,3.85
2023-05-20T12:37:22.264Z,3.92
2023-05-20T12:40:08.846Z,3.42
2023-05-20T12:42:53.829Z,4.22
2023-05-20T12:45:38.759Z,4.25
2023-05-20T12:48:23.529Z,3.63
2023-05-20T12:51:08.472Z,3.83
2023-05-20T12:53:53.243Z,3.45
2023-05-20T12:56:39.250Z,4.20
2023-05-20T12:59:24.017Z,3.50
2023-05-20T13:02:10.652Z,4.10
2023-05-20T13:07:41.687Z,3.90
2023-05-20T13:10:26.778Z,4.00
2023-05-20T13:13:14.430Z,3.78
2023-05-20T13:15:59.695Z,3.65
2023-05-20T13:18:45.266Z,3.78
2023-05-20T13:21:32.795Z,4.18
2023-05-20T13:24:18.804Z,3.92
2023-05-20T13:27:04.627Z,3.97
2023-05-20T13:29:50.125Z,3.88
2023-05-20T13:32:35.192Z,3.45
2023-05-20T13:35:21.182Z,3.53
2023-05-20T13:38:06.298Z,3.60
2023-05-20T13:40:51.508Z,3.60
2023-05-20T13:43:37.356Z,3.83
2023-05-20T13:46:26.112Z,3.75
2023-05-20T13:49:11.304Z,4.38
2023-05-20T13:51:56.425Z,3.95
2023-05-20T13:54:42.951Z,3.58
2023-05-20T13:57:27.851Z,3.90
2023-05-20T14:00:13.995Z,3.67
2023-05-20T14:03:00.675Z,4.43
2023-05-20T14:05:46.276Z,3.40
2023-05-20T14:08:31.288Z,3.53
2023-05-20T14:11:16.774Z,3.90
2023-05-20T14:14:02.343Z,4.05
2023-05-20T14:16:47.896Z,4.03
2023-05-20T14:19:33.009Z,3.72
2023-05-20T14:22:19.846Z,3.70
2023-05-20T14:25:05.814Z,3.22
2023-05-20T14:27:51.393Z,3.65
2023-05-20T14:30:37.143Z,4.07
2023-05-20T14:33:22.339Z,3.95
2023-05-20T14:36:09.341Z,3.90
2023-05-20T14:38:54.133Z,4.00
2023-05-20T14:41:39.727Z,3.38
2023-05-20T14:44:24.777Z,3.42
2023-05-20T14:47:10.836Z,3.85
2023-05-20T14:49:56.840Z,3.72
2023-05-20T14:52:42.262Z,3.60
2023-05-20T14:55:27.740Z,3.80
2023-05-20T14:58:12.723Z,3.60
2023-05-20T15:00:58.008Z,3.85
2023-05-20T15:03:43.296Z,3.78
2023-05-20T15:06:28.778Z,3.28
2023-05-20T15:09:13.847Z,3.90
2023-05-20T15:11:58.681Z,3.17
2023-05-20T15:14:43.527Z,3.60
2023-05-20T15:17:29.368Z,3.70
2023-05-20T15:20:14.850Z,3.72
2023-05-20T15:23:01.061Z,3.70
2023-05-20T15:25:46.840Z,3.83
2023-05-20T15:28:31.905Z,3.78
2023-05-20T15:31:17.219Z,3.80
2023-05-20T15:34:02.636Z,4.05
2023-05-20T15:36:48.371Z,4.30
2023-05-20T15:39:37.357Z,3.95
2023-05-20T15:42:22.380Z,3.90
2023-05-20T15:45:09.095Z,3.85
2023-05-20T15:47:54.694Z,3.95
2023-05-20T15:50:40.354Z,4.18
2023-05-20T15:53:25.427Z,3.70
2023-05-20T15:56:12.805Z,3.75
2023-05-20T15:58:57.717Z,3.60
2023-05-20T16:01:42.942Z,3.28
2023-05-20T16:04:28.055Z,3.63
2023-05-20T16:07:13.429Z,3.67
2023-05-20T16:09:58.361Z,4.00
2023-05-20T16:12:44.538Z,3.92
2023-05-20T16:15:35.833Z,3.55
2023-05-20T16:18:21.154Z,3.70
2023-05-20T16:21:08.347Z,4.00
2023-05-20T16:23:53.507Z,3.85
2023-05-20T16:26:38.377Z,3.67
2023-05-20T16:29:23.298Z,3.90
2023-05-20T16:32:08.646Z,3.88
2023-05-20T16:34:54.659Z,4.03
2023-05-20T16:37:39.788Z,3.80
2023-05-20T16:40:24.765Z,4.07
2023-05-20T16:43:10.595Z,4.45
2023-05-20T16:45:56.116Z,4.45
2023-05-20T16:48:42.729Z,3.58
2023-05-20T16:51:27.741Z,4.00
2023-05-20T16:54:13.025Z,4.07
2023-05-20T16:56:58.183Z,3.97
2023-05-20T16:59:43.153Z,4.32
2023-05-20T17:02:29.830Z,3.80
2023-05-20T17:05:16.776Z,4.00
2023-05-20T17:08:04.600Z,3.90
2023-05-20T17:10:52.444Z,4.60
2023-05-20T17:13:42.056Z,3.92
2023-05-20T17:16:27.374Z,4.22
2023-05-20T17:19:12.163Z,4.72
2023-05-20T17:21:58.411Z,4.30
2023-05-20T17:24:44.893Z,4.28
2023-05-20T17:27:30.205Z,4.30
2023-05-20T17:30:15.819Z,4.07
2023-05-20T17:33:01.467Z,3.80
2023-05-20T17:35:47.118Z,4.30
2023-05-20T17:38:32.678Z,4.57
2023-05-20T17:41:23.864Z,4.63
2023-05-20T17:44:09.504Z,5.03
2023-05-20T17:46:54.198Z,4.85
2023-05-20T17:49:39.594Z,4.70
2023-05-20T17:52:24.629Z,4.68
2023-05-20T17:55:10.113Z,5.03
2023-05-20T17:57:58.060Z,4.78
2023-05-20T18:00:42.927Z,5.10
2023-05-20T18:03:29.041Z,5.22
2023-05-20T18:06:14.197Z,5.32
2023-05-20T18:08:59.922Z,4.50
2023-05-20T18:11:44.947Z,5.65
2023-05-20T18:14:32.593Z,5.20
2023-05-20T18:17:17.901Z,4.95
2023-05-20T18:20:04.421Z,4.57
2023-05-20T18:22:52.158Z,5.10
2023-05-20T18:25:38.320Z,5.40
2023-05-20T18:28:24.370Z,5.38
2023-05-20T18:31:09.194Z,5.43
2023-05-20T18:33:54.438Z,5.13
2023-05-20T18:36:40.760Z,5.13
2023-05-20T18:39:26.650Z,5.22
2023-05-20T18:42:11.605Z,5.20
2023-05-20T18:44:56.805Z,5.47
2023-05-20T18:47:42.105Z,5.82
2023-05-20T18:50:27.228Z,4.93
2023-05-20T18:53:13.440Z,5.35
2023-05-20T18:56:02.882Z,5.15
2023-05-20T18:58:49.333Z,4.95
2023-05-20T19:01:36.860Z,5.20
2023-05-20T19:04:22.677Z,5.75
2023-05-20T19:07:10.384Z,5.75
2023-05-20T19:09:56.724Z,5.13
2023-05-20T19:12:43.789Z,5.28
2023-05-20T19:15:30.112Z,6.00
2023-05-20T19:18:15.656Z,5.95
2023-05-20T19:21:00.518Z,4.78
2023-05-20T19:23:46.837Z,5.93
2023-05-20T19:26:33.493Z,5.28
2023-05-20T19:29:19.378Z,5.60
2023-05-20T19:32:06.205Z,5.35
2023-05-20T19:34:52.244Z,4.68
2023-05-20T19:37:37.382Z,5.95
2023-05-20T19:40:22.663Z,6.30
2023-05-20T19:43:07.948Z,5.88
2023-05-20T19:45:52.839Z,5.95
2023-05-20T19:48:38.160Z,6.45
2023-05-20T19:51:23.197Z,5.97
2023-05-20T19:54:08.005Z,5.70
2023-05-20T19:56:52.807Z,6.70
2023-05-20T19:59:38.045Z,5.90
2023-05-20T20:02:23.812Z,6.63
2023-05-20T20:05:09.794Z,6.00
2023-05-20T20:07:55.239Z,6.03
2023-05-20T20:10:40.401Z,5.80
2023-05-20T20:13:25.603Z,6.68
2023-05-20T20:16:10.930Z,6.18
2023-05-20T20:18:56.237Z,5.93
2023-05-20T20:21:42.902Z,6.55
2023-05-20T20:24:28.790Z,6.28
2023-05-20T20:27:13.912Z,6.72
2023-05-20T20:30:00.635Z,6.80
2023-05-20T20:32:48.463Z,6.72
2023-05-20T20:35:36.691Z,6.95
2023-05-20T20:38:22.312Z,6.18
2023-05-20T20:41:09.378Z,6.72
2023-05-20T20:43:55.608Z,6.38
2023-05-20T20:46:42.598Z,5.88
2023-05-20T20:49:28.747Z,6.90
2023-05-20T20:52:14.163Z,7.07
2023-05-20T20:55:02.167Z,6.82
2023-05-20T20:57:47.918Z,6.82
2023-05-20T21:00:33.738Z,6.07
2023-05-20T21:03:18.935Z,6.25
2023-05-20T21:06:04.183Z,5.82
2023-05-20T21:08:49.273Z,6.45
2023-05-20T21:11:38.141Z,6.80
2023-05-20T21:14:25.837Z,6.47
2023-05-20T21:17:12.060Z,6.35
2023-05-20T21:19:58.468Z,6.30
2023-05-20T21:22:44.708Z,6.70
2023-05-20T21:25:29.964Z,6.10
2023-05-20T21:28:16.996Z,6.47
2023-05-20T21:31:01.830Z,6.30
2023-05-20T21:33:48.106Z,6.70
2023-05-20T21:36:33.396Z,6.55
2023-05-20T21:39:18.648Z,6.00
2023-05-20T21:42:06.601Z,6.80
2023-05-20T21:44:54.900Z,5.90
2023-05-20T21:47:40.562Z,6.07
2023-05-20T21:50:25.634Z,6.30
2023-05-20T21:53:10.365Z,6.25
2023-05-20T21:55:55.400Z,6.18
2023-05-20T21:58:42.105Z,6.75
2023-05-20T22:01:27.542Z,5.72
2023-05-20T22:04:13.335Z,6.70
2023-05-20T22:06:58.471Z,6.65
2023-05-20T22:09:43.748Z,5.95
2023-05-20T22:12:29.193Z,6.18
2023-05-20T22:15:14.180Z,5.97
2023-05-20T22:17:59.113Z,5.90
2023-05-20T22:20:45.219Z,6.45
2023-05-20T22:23:30.563Z,5.65
2023-05-20T22:26:19.089Z,6.00
2023-05-20T22:29:04.424Z,5.60
2023-05-20T22:31:49.487Z,5.68
2023-05-20T22:34:34.799Z,5.45
2023-05-20T22:37:21.022Z,5.85
2023-05-20T22:40:07.136Z,5.95
2023-05-20T22:42:53.900Z,5.57
2023-05-20T22:45:40.293Z,5.68
2023-05-20T22:48:25.579Z,5.97
2023-05-20T22:51:11.890Z,5.93
2023-05-20T22:53:56.625Z,5.80
2023-05-20T22:56:42.285Z,6.43
2023-05-20T22:59:30.852Z,5.55
2023-05-20T23:02:15.912Z,6.25
2023-05-20T23:05:02.446Z,5.45
2023-05-20T23:07:47.345Z,5.57
2023-05-20T23:10:32.113Z,5.78
2023-05-20T23:13:17.067Z,6.25
2023-05-20T23:16:02.045Z,5.60
2023-05-20T23:18:47.523Z,5.60
2023-05-20T23:21:32.589Z,6.07
2023-05-20T23:24:17.885Z,5.70
2023-05-20T23:27:04.389Z,5.25
2023-05-20T23:29:49.227Z,6.30
2023-05-20T23:32:34.131Z,5.65
2023-05-20T23:35:19.707Z,5.68
2023-05-20T23:38:04.921Z,5.43
2023-05-20T23:40:49.866Z,5.82
2023-05-20T23:43:34.702Z,5.80
2023-05-20T23:46:20.913Z,6.30
2023-05-20T23:49:06.608Z,5.50
2023-05-20T23:51:51.690Z,4.72
2023-05-20T23:54:36.631Z,6.03
2023-05-20T23:57:22.453Z,5.55
